sensor_id;sensor_type;location;lat;lon;timestamp;pressure;altitude;pressure_sealevel;temperature;humidity
46392;BME280;32098;49.448;7.904;2023-03-23T00:00:37;97382.63;;;11.90;51.78
46392;BME280;32098;49.448;7.904;2023-03-23T00:03:02;97388.25;;;11.93;51.42
46392;BME280;32098;49.448;7.904;2023-03-23T00:05:28;97391.72;;;11.94;51.43
46392;BME280;32098;49.448;7.904;2023-03-23T00:07:54;97396.03;;;11.95;51.67
46392;BME280;32098;49.448;7.904;2023-03-23T00:10:20;97396.88;;;12.00;51.42
46392;BME280;32098;49.448;7.904;2023-03-23T00:12:46;97382.38;;;11.96;51.26
46392;BME280;32098;49.448;7.904;2023-03-23T00:15:15;97389.63;;;12.01;51.60
46392;BME280;32098;49.448;7.904;2023-03-23T00:17:42;97396.34;;;12.03;51.19
46392;BME280;32098;49.448;7.904;2023-03-23T00:20:09;97397.66;;;12.01;51.26
46392;BME280;32098;49.448;7.904;2023-03-23T00:22:38;97392.53;;;11.94;51.08
46392;BME280;32098;49.448;7.904;2023-03-23T00:25:04;97398.75;;;12.00;51.27
46392;BME280;32098;49.448;7.904;2023-03-23T00:27:30;97405.69;;;12.01;51.49
46392;BME280;32098;49.448;7.904;2023-03-23T00:29:56;97391.25;;;12.02;50.92
46392;BME280;32098;49.448;7.904;2023-03-23T00:32:24;97402.03;;;12.12;51.36
46392;BME280;32098;49.448;7.904;2023-03-23T00:34:53;97387.59;;;12.13;50.96
46392;BME280;32098;49.448;7.904;2023-03-23T00:37:18;97384.91;;;12.13;51.12
46392;BME280;32098;49.448;7.904;2023-03-23T00:39:44;97378.41;;;12.04;50.89
46392;BME280;32098;49.448;7.904;2023-03-23T00:42:12;97391.78;;;12.04;50.59
46392;BME280;32098;49.448;7.904;2023-03-23T00:44:38;97384.31;;;12.06;50.51
46392;BME280;32098;49.448;7.904;2023-03-23T00:47:05;97390.78;;;12.10;50.81
46392;BME280;32098;49.448;7.904;2023-03-23T00:49:31;97378.94;;;12.01;50.78
46392;BME280;32098;49.448;7.904;2023-03-23T00:52:00;97385.16;;;12.11;50.48
46392;BME280;32098;49.448;7.904;2023-03-23T00:54:25;97388.09;;;12.10;50.61
46392;BME280;32098;49.448;7.904;2023-03-23T00:56:52;97371.69;;;11.96;50.30
46392;BME280;32098;49.448;7.904;2023-03-23T00:59:18;97383.28;;;12.12;50.76
46392;BME280;32098;49.448;7.904;2023-03-23T01:01:45;97379.81;;;12.16;50.45
46392;BME280;32098;49.448;7.904;2023-03-23T01:04:12;97368.53;;;12.04;50.92
46392;BME280;32098;49.448;7.904;2023-03-23T01:06:41;97358.31;;;11.96;50.85
46392;BME280;32098;49.448;7.904;2023-03-23T01:09:10;97357.81;;;12.04;51.25
46392;BME280;32098;49.448;7.904;2023-03-23T01:11:36;97359.94;;;12.02;50.92
46392;BME280;32098;49.448;7.904;2023-03-23T01:14:04;97357.00;;;12.04;51.21
46392;BME280;32098;49.448;7.904;2023-03-23T01:16:30;97356.19;;;12.03;51.16
46392;BME280;32098;49.448;7.904;2023-03-23T01:18:55;97343.13;;;12.12;51.21
46392;BME280;32098;49.448;7.904;2023-03-23T01:21:21;97353.31;;;12.15;50.90
46392;BME280;32098;49.448;7.904;2023-03-23T01:23:47;97353.06;;;12.21;51.37
46392;BME280;32098;49.448;7.904;2023-03-23T01:26:17;97359.78;;;12.24;51.08
46392;BME280;32098;49.448;7.904;2023-03-23T01:28:43;97361.44;;;12.30;50.90
46392;BME280;32098;49.448;7.904;2023-03-23T01:31:12;97356.53;;;12.12;51.25
46392;BME280;32098;49.448;7.904;2023-03-23T01:33:39;97343.16;;;12.17;51.12
46392;BME280;32098;49.448;7.904;2023-03-23T01:36:09;97344.75;;;12.13;51.00
46392;BME280;32098;49.448;7.904;2023-03-23T01:38:35;97325.78;;;12.24;51.11
46392;BME280;32098;49.448;7.904;2023-03-23T01:41:03;97322.06;;;12.25;51.03
46392;BME280;32098;49.448;7.904;2023-03-23T01:43:29;97312.69;;;12.23;50.99
46392;BME280;32098;49.448;7.904;2023-03-23T01:45:55;97312.69;;;12.23;51.02
46392;BME280;32098;49.448;7.904;2023-03-23T01:48:22;97315.91;;;12.25;51.21
46392;BME280;32098;49.448;7.904;2023-03-23T01:50:50;97320.44;;;12.24;51.14
46392;BME280;32098;49.448;7.904;2023-03-23T01:53:18;97317.50;;;12.26;51.32
46392;BME280;32098;49.448;7.904;2023-03-23T01:55:44;97320.47;;;12.29;51.16
46392;BME280;32098;49.448;7.904;2023-03-23T01:58:14;97316.66;;;12.15;51.05
46392;BME280;32098;49.448;7.904;2023-03-23T02:00:40;97326.31;;;12.21;50.99
46392;BME280;32098;49.448;7.904;2023-03-23T02:03:08;97311.53;;;12.09;51.24
46392;BME280;32098;49.448;7.904;2023-03-23T02:05:40;97327.13;;;12.22;50.98
46392;BME280;32098;49.448;7.904;2023-03-23T02:08:14;97308.63;;;12.10;51.15
46392;BME280;32098;49.448;7.904;2023-03-23T02:10:40;97304.03;;;12.11;51.05
46392;BME280;32098;49.448;7.904;2023-03-23T02:13:08;97326.81;;;12.18;50.91
46392;BME280;32098;49.448;7.904;2023-03-23T02:18:48;97307.59;;;12.26;50.98
46392;BME280;32098;49.448;7.904;2023-03-23T02:26:54;97304.13;;;12.31;51.09
46392;BME280;32098;49.448;7.904;2023-03-23T02:29:40;97310.03;;;12.28;51.02
46392;BME280;32098;49.448;7.904;2023-03-23T02:32:15;97302.00;;;12.28;51.34
46392;BME280;32098;49.448;7.904;2023-03-23T02:34:45;97307.59;;;12.26;51.22
46392;BME280;32098;49.448;7.904;2023-03-23T02:37:24;97305.72;;;12.22;52.00
46392;BME280;32098;49.448;7.904;2023-03-23T02:39:57;97301.16;;;12.22;51.73
46392;BME280;32098;49.448;7.904;2023-03-23T02:42:26;97304.09;;;12.21;51.76
46392;BME280;32098;49.448;7.904;2023-03-23T02:44:54;97290.97;;;12.19;52.13
46392;BME280;32098;49.448;7.904;2023-03-23T02:47:25;97281.91;;;12.20;52.08
46392;BME280;32098;49.448;7.904;2023-03-23T02:49:54;97278.63;;;12.13;52.11
46392;BME280;32098;49.448;7.904;2023-03-23T02:52:27;97279.19;;;12.10;52.29
46392;BME280;32098;49.448;7.904;2023-03-23T02:54:56;97273.03;;;12.15;52.17
46392;BME280;32098;49.448;7.904;2023-03-23T02:57:24;97279.97;;;12.16;52.61
46392;BME280;32098;49.448;7.904;2023-03-23T02:59:52;97277.56;;;12.14;52.27
46392;BME280;32098;49.448;7.904;2023-03-23T03:02:23;97277.84;;;12.13;52.62
46392;BME280;32098;49.448;7.904;2023-03-23T03:07:55;97272.47;;;12.03;52.56
46392;BME280;32098;49.448;7.904;2023-03-23T03:12:54;97278.38;;;12.15;52.88
46392;BME280;32098;49.448;7.904;2023-03-23T03:15:27;97274.88;;;12.09;53.47
46392;BME280;32098;49.448;7.904;2023-03-23T03:20:29;97282.41;;;12.17;52.99
46392;BME280;32098;49.448;7.904;2023-03-23T03:22:56;97263.13;;;12.15;53.63
46392;BME280;32098;49.448;7.904;2023-03-23T03:25:25;97274.63;;;12.16;53.72
46392;BME280;32098;49.448;7.904;2023-03-23T03:27:55;97277.06;;;12.17;53.81
46392;BME280;32098;49.448;7.904;2023-03-23T03:30:36;97280.53;;;12.13;54.44
46392;BME280;32098;49.448;7.904;2023-03-23T03:33:03;97270.34;;;12.10;54.55
46392;BME280;32098;49.448;7.904;2023-03-23T03:35:30;97266.56;;;12.11;54.98
46392;BME280;32098;49.448;7.904;2023-03-23T03:37:57;97272.19;;;12.04;54.96
46392;BME280;32098;49.448;7.904;2023-03-23T03:40:29;97272.19;;;12.04;54.46
46392;BME280;32098;49.448;7.904;2023-03-23T03:42:55;97274.59;;;12.06;54.58
46392;BME280;32098;49.448;7.904;2023-03-23T03:45:20;97281.25;;;12.03;54.26
46392;BME280;32098;49.448;7.904;2023-03-23T03:47:46;97275.91;;;12.03;54.92
46392;BME280;32098;49.448;7.904;2023-03-23T03:50:12;97274.31;;;12.02;55.57
46392;BME280;32098;49.448;7.904;2023-03-23T03:52:39;97287.91;;;11.91;56.60
46392;BME280;32098;49.448;7.904;2023-03-23T03:55:07;97301.28;;;11.91;58.29
46392;BME280;32098;49.448;7.904;2023-03-23T03:57:34;97296.66;;;11.76;58.57
46392;BME280;32098;49.448;7.904;2023-03-23T04:00:25;97308.94;;;11.72;59.31
46392;BME280;32098;49.448;7.904;2023-03-23T04:02:51;97306.34;;;11.82;60.39
46392;BME280;32098;49.448;7.904;2023-03-23T04:05:38;97309.19;;;11.70;60.95
46392;BME280;32098;49.448;7.904;2023-03-23T04:08:04;97316.88;;;11.57;62.34
46392;BME280;32098;49.448;7.904;2023-03-23T04:10:31;97316.63;;;11.63;62.07
46392;BME280;32098;49.448;7.904;2023-03-23T04:12:58;97326.03;;;11.66;62.25
46392;BME280;32098;49.448;7.904;2023-03-23T04:15:52;97315.09;;;11.67;62.64
46392;BME280;32098;49.448;7.904;2023-03-23T04:18:18;97329.00;;;11.69;63.08
46392;BME280;32098;49.448;7.904;2023-03-23T04:20:47;97324.66;;;11.63;63.06
46392;BME280;32098;49.448;7.904;2023-03-23T04:23:16;97327.59;;;11.62;63.40
46392;BME280;32098;49.448;7.904;2023-03-23T04:25:46;97328.69;;;11.66;63.64
46392;BME280;32098;49.448;7.904;2023-03-23T04:28:14;97326.53;;;11.63;64.24
46392;BME280;32098;49.448;7.904;2023-03-23T04:30:52;97332.69;;;11.63;64.33
46392;BME280;32098;49.448;7.904;2023-03-23T04:33:24;97332.97;;;11.62;64.65
46392;BME280;32098;49.448;7.904;2023-03-23T04:35:53;97335.59;;;11.57;64.93
46392;BME280;32098;49.448;7.904;2023-03-23T04:38:29;97339.63;;;11.59;64.91
46392;BME280;32098;49.448;7.904;2023-03-23T04:41:02;97346.00;;;11.53;64.95
46392;BME280;32098;49.448;7.904;2023-03-23T04:43:42;97348.13;;;11.51;65.71
46392;BME280;32098;49.448;7.904;2023-03-23T04:46:27;97353.69;;;11.45;65.65
46392;BME280;32098;49.448;7.904;2023-03-23T04:48:57;97350.75;;;11.46;65.47
46392;BME280;32098;49.448;7.904;2023-03-23T04:51:31;97357.69;;;11.42;65.57
46392;BME280;32098;49.448;7.904;2023-03-23T04:54:08;97360.88;;;11.39;66.54
46392;BME280;32098;49.448;7.904;2023-03-23T04:56:34;97367.63;;;11.20;67.49
46392;BME280;32098;49.448;7.904;2023-03-23T04:59:07;97370.25;;;11.15;68.49
46392;BME280;32098;49.448;7.904;2023-03-23T05:01:38;97364.41;;;10.91;69.51
46392;BME280;32098;49.448;7.904;2023-03-23T05:04:15;97365.66;;;10.84;70.33
46392;BME280;32098;49.448;7.904;2023-03-23T05:06:45;97366.72;;;10.83;70.80
46392;BME280;32098;49.448;7.904;2023-03-23T05:09:18;97373.47;;;10.90;71.01
46392;BME280;32098;49.448;7.904;2023-03-23T05:11:46;97363.00;;;10.84;71.08
46392;BME280;32098;49.448;7.904;2023-03-23T05:14:11;97351.56;;;10.88;71.10
46392;BME280;32098;49.448;7.904;2023-03-23T05:16:38;97348.88;;;10.88;71.25
46392;BME280;32098;49.448;7.904;2023-03-23T05:19:06;97347.03;;;10.89;71.97
46392;BME280;32098;49.448;7.904;2023-03-23T05:21:32;97336.88;;;10.91;72.11
46392;BME280;32098;49.448;7.904;2023-03-23T05:23:59;97340.31;;;10.86;72.16
46392;BME280;32098;49.448;7.904;2023-03-23T05:26:27;97345.94;;;10.85;72.17
46392;BME280;32098;49.448;7.904;2023-03-23T05:29:03;97347.19;;;10.77;72.93
46392;BME280;32098;49.448;7.904;2023-03-23T05:32:02;97345.84;;;10.75;73.30
46392;BME280;32098;49.448;7.904;2023-03-23T05:34:31;97352.75;;;10.76;73.26
46392;BME280;32098;49.448;7.904;2023-03-23T05:36:59;97350.09;;;10.76;73.02
46392;BME280;32098;49.448;7.904;2023-03-23T05:39:31;97352.72;;;10.71;73.39
46392;BME280;32098;49.448;7.904;2023-03-23T05:42:16;97349.19;;;10.65;74.01
46392;BME280;32098;49.448;7.904;2023-03-23T05:45:03;97358.06;;;10.71;74.06
46392;BME280;32098;49.448;7.904;2023-03-23T05:47:29;97344.66;;;10.66;75.00
46392;BME280;32098;49.448;7.904;2023-03-23T05:50:01;97353.03;;;10.74;74.32
46392;BME280;32098;49.448;7.904;2023-03-23T05:52:29;97356.47;;;10.70;74.34
46392;BME280;32098;49.448;7.904;2023-03-23T05:54:58;97367.13;;;10.70;74.53
46392;BME280;32098;49.448;7.904;2023-03-23T05:57:24;97332.44;;;10.48;74.70
46392;BME280;32098;49.448;7.904;2023-03-23T05:59:59;97365.03;;;10.72;74.50
46392;BME280;32098;49.448;7.904;2023-03-23T06:02:38;97364.22;;;10.71;73.91
46392;BME280;32098;49.448;7.904;2023-03-23T06:05:05;97378.53;;;10.60;74.87
46392;BME280;32098;49.448;7.904;2023-03-23T06:07:34;97380.88;;;10.57;75.57
46392;BME280;32098;49.448;7.904;2023-03-23T06:10:05;97382.53;;;10.41;75.51
46392;BME280;32098;49.448;7.904;2023-03-23T06:12:37;97381.59;;;10.30;75.87
46392;BME280;32098;49.448;7.904;2023-03-23T06:15:11;97388.50;;;10.26;76.54
46392;BME280;32098;49.448;7.904;2023-03-23T06:17:59;97391.72;;;10.28;77.21
46392;BME280;32098;49.448;7.904;2023-03-23T06:20:29;97402.91;;;10.25;77.69
46392;BME280;32098;49.448;7.904;2023-03-23T06:22:58;97396.44;;;10.21;77.86
46392;BME280;32098;49.448;7.904;2023-03-23T06:25:27;97398.63;;;10.24;77.89
46392;BME280;32098;49.448;7.904;2023-03-23T06:27:53;97418.41;;;10.28;77.99
46392;BME280;32098;49.448;7.904;2023-03-23T06:30:20;97428.53;;;10.26;78.20
46392;BME280;32098;49.448;7.904;2023-03-23T06:32:46;97439.75;;;10.28;78.16
46392;BME280;32098;49.448;7.904;2023-03-23T06:35:14;97425.47;;;10.18;78.69
46392;BME280;32098;49.448;7.904;2023-03-23T06:37:58;97424.25;;;10.25;78.71
46392;BME280;32098;49.448;7.904;2023-03-23T06:40:43;97418.19;;;10.30;78.27
46392;BME280;32098;49.448;7.904;2023-03-23T06:43:13;97422.25;;;10.16;78.94
46392;BME280;32098;49.448;7.904;2023-03-23T06:45:54;97434.13;;;10.25;78.79
46392;BME280;32098;49.448;7.904;2023-03-23T06:48:25;97440.56;;;10.29;78.58
46392;BME280;32098;49.448;7.904;2023-03-23T06:50:51;97430.72;;;10.29;78.81
46392;BME280;32098;49.448;7.904;2023-03-23T06:53:19;97435.28;;;10.12;79.33
46392;BME280;32098;49.448;7.904;2023-03-23T06:55:47;97437.13;;;10.12;79.82
46392;BME280;32098;49.448;7.904;2023-03-23T06:58:13;97432.03;;;10.10;79.48
46392;BME280;32098;49.448;7.904;2023-03-23T07:00:39;97435.78;;;10.09;79.83
46392;BME280;32098;49.448;7.904;2023-03-23T07:03:06;97441.47;;;10.18;79.35
46392;BME280;32098;49.448;7.904;2023-03-23T07:05:35;97432.69;;;10.17;79.64
46392;BME280;32098;49.448;7.904;2023-03-23T07:08:02;97435.41;;;10.06;79.92
46392;BME280;32098;49.448;7.904;2023-03-23T07:10:32;97428.88;;;9.97;80.70
46392;BME280;32098;49.448;7.904;2023-03-23T07:12:59;97429.94;;;9.96;81.86
46392;BME280;32098;49.448;7.904;2023-03-23T07:15:27;97430.66;;;9.91;81.37
46392;BME280;32098;49.448;7.904;2023-03-23T07:17:54;97442.94;;;9.75;82.43
46392;BME280;32098;49.448;7.904;2023-03-23T07:20:31;97432.13;;;9.82;82.14
46392;BME280;32098;49.448;7.904;2023-03-23T07:22:57;97432.22;;;9.87;81.81
46392;BME280;32098;49.448;7.904;2023-03-23T07:25:40;97433.34;;;9.74;81.38
46392;BME280;32098;49.448;7.904;2023-03-23T07:28:09;97436.19;;;9.84;81.41
46392;BME280;32098;49.448;7.904;2023-03-23T07:30:35;97440.00;;;9.72;81.46
46392;BME280;32098;49.448;7.904;2023-03-23T07:33:04;97455.50;;;9.75;81.45
46392;BME280;32098;49.448;7.904;2023-03-23T07:35:30;97449.09;;;9.93;81.10
46392;BME280;32098;49.448;7.904;2023-03-23T07:38:04;97437.28;;;9.88;80.71
46392;BME280;32098;49.448;7.904;2023-03-23T07:40:30;97446.66;;;9.91;80.78
46392;BME280;32098;49.448;7.904;2023-03-23T07:43:03;97455.78;;;9.95;80.61
46392;BME280;32098;49.448;7.904;2023-03-23T07:45:52;97458.31;;;10.02;80.82
46392;BME280;32098;49.448;7.904;2023-03-23T07:48:20;97458.97;;;9.92;80.87
46392;BME280;32098;49.448;7.904;2023-03-23T07:50:46;97457.91;;;9.93;81.22
46392;BME280;32098;49.448;7.904;2023-03-23T07:53:12;97450.16;;;9.92;80.64
46392;BME280;32098;49.448;7.904;2023-03-23T07:55:40;97465.97;;;9.98;81.26
46392;BME280;32098;49.448;7.904;2023-03-23T07:58:16;97463.88;;;10.00;81.29
46392;BME280;32098;49.448;7.904;2023-03-23T08:00:47;97466.81;;;9.82;81.30
46392;BME280;32098;49.448;7.904;2023-03-23T08:03:16;97475.53;;;9.94;81.58
46392;BME280;32098;49.448;7.904;2023-03-23T08:05:50;97477.63;;;10.09;80.57
46392;BME280;32098;49.448;7.904;2023-03-23T08:08:35;97476.97;;;10.18;79.93
46392;BME280;32098;49.448;7.904;2023-03-23T08:11:20;97471.09;;;10.16;79.99
46392;BME280;32098;49.448;7.904;2023-03-23T08:14:08;97467.94;;;10.19;79.55
46392;BME280;32098;49.448;7.904;2023-03-23T08:17:09;97481.66;;;10.28;79.37
46392;BME280;32098;49.448;7.904;2023-03-23T08:19:53;97492.97;;;10.35;79.16
46392;BME280;32098;49.448;7.904;2023-03-23T08:22:33;97495.88;;;10.33;79.17
46392;BME280;32098;49.448;7.904;2023-03-23T08:25:36;97495.53;;;10.46;79.21
46392;BME280;32098;49.448;7.904;2023-03-23T08:28:21;97498.28;;;10.52;79.34
46392;BME280;32098;49.448;7.904;2023-03-23T08:31:24;97500.94;;;10.52;78.34
46392;BME280;32098;49.448;7.904;2023-03-23T08:34:22;97494.84;;;10.56;78.58
46392;BME280;32098;49.448;7.904;2023-03-23T08:37:05;97509.72;;;10.69;78.11
46392;BME280;32098;49.448;7.904;2023-03-23T08:39:54;97472.53;;;10.62;78.02
46392;BME280;32098;49.448;7.904;2023-03-23T08:42:49;97509.97;;;10.67;77.34
46392;BME280;32098;49.448;7.904;2023-03-23T08:45:34;97506.63;;;10.77;77.85
46392;BME280;32098;49.448;7.904;2023-03-23T08:48:32;97497.91;;;10.65;77.35
46392;BME280;32098;49.448;7.904;2023-03-23T08:51:28;97512.50;;;10.79;77.23
46392;BME280;32098;49.448;7.904;2023-03-23T08:54:19;97521.06;;;10.81;77.11
46392;BME280;32098;49.448;7.904;2023-03-23T08:57:05;97528.41;;;10.69;76.85
46392;BME280;32098;49.448;7.904;2023-03-23T08:59:32;97520.59;;;10.62;77.39
46392;BME280;32098;49.448;7.904;2023-03-23T09:02:23;97532.22;;;10.73;77.55
46392;BME280;32098;49.448;7.904;2023-03-23T09:05:12;97542.09;;;10.72;77.98
46392;BME280;32098;49.448;7.904;2023-03-23T09:08:01;97549.84;;;10.74;77.71
46392;BME280;32098;49.448;7.904;2023-03-23T09:10:29;97543.06;;;10.66;78.51
46392;BME280;32098;49.448;7.904;2023-03-23T09:12:55;97541.69;;;10.64;78.65
46392;BME280;32098;49.448;7.904;2023-03-23T09:15:22;97535.78;;;10.62;78.98
46392;BME280;32098;49.448;7.904;2023-03-23T09:17:50;97506.06;;;10.36;80.01
46392;BME280;32098;49.448;7.904;2023-03-23T09:20:19;97552.38;;;10.64;80.12
46392;BME280;32098;49.448;7.904;2023-03-23T09:22:48;97548.03;;;10.58;79.84
46392;BME280;32098;49.448;7.904;2023-03-23T09:25:16;97542.09;;;10.56;80.21
46392;BME280;32098;49.448;7.904;2023-03-23T09:27:44;97559.41;;;10.53;80.50
46392;BME280;32098;49.448;7.904;2023-03-23T09:30:13;97551.34;;;10.48;80.57
46392;BME280;32098;49.448;7.904;2023-03-23T09:32:40;97547.63;;;10.49;80.61
46392;BME280;32098;49.448;7.904;2023-03-23T09:35:08;97549.81;;;10.52;81.32
46392;BME280;32098;49.448;7.904;2023-03-23T09:37:35;97553.81;;;10.71;80.99
46392;BME280;32098;49.448;7.904;2023-03-23T09:40:02;97541.41;;;10.82;80.65
46392;BME280;32098;49.448;7.904;2023-03-23T09:42:41;97541.03;;;10.95;79.15
46392;BME280;32098;49.448;7.904;2023-03-23T09:48:26;97532.03;;;11.23;79.29
46392;BME280;32098;49.448;7.904;2023-03-23T09:51:21;97528.50;;;11.70;79.11
46392;BME280;32098;49.448;7.904;2023-03-23T09:53:52;97519.78;;;11.80;76.06
46392;BME280;32098;49.448;7.904;2023-03-23T09:56:20;97518.81;;;11.91;75.58
46392;BME280;32098;49.448;7.904;2023-03-23T09:58:56;97535.09;;;12.21;74.92
46392;BME280;32098;49.448;7.904;2023-03-23T10:01:37;97527.13;;;12.26;73.54
46392;BME280;32098;49.448;7.904;2023-03-23T10:04:36;97533.84;;;12.34;73.73
46392;BME280;32098;49.448;7.904;2023-03-23T10:07:15;97528.88;;;12.11;74.18
46392;BME280;32098;49.448;7.904;2023-03-23T10:09:43;97525.41;;;12.10;74.87
46392;BME280;32098;49.448;7.904;2023-03-23T10:15:11;97540.63;;;11.78;75.05
46392;BME280;32098;49.448;7.904;2023-03-23T10:18:10;97532.88;;;11.76;76.16
46392;BME280;32098;49.448;7.904;2023-03-23T10:20:43;97550.06;;;11.59;75.84
46392;BME280;32098;49.448;7.904;2023-03-23T10:23:38;97557.34;;;11.63;76.64
46392;BME280;32098;49.448;7.904;2023-03-23T10:28:40;97555.69;;;11.57;77.16
46392;BME280;32098;49.448;7.904;2023-03-23T10:31:10;97541.22;;;11.58;76.62
46392;BME280;32098;49.448;7.904;2023-03-23T10:33:40;97565.34;;;11.63;76.22
46392;BME280;32098;49.448;7.904;2023-03-23T10:36:29;97550.03;;;11.54;75.91
46392;BME280;32098;49.448;7.904;2023-03-23T10:39:20;97557.22;;;11.53;76.07
46392;BME280;32098;49.448;7.904;2023-03-23T10:41:47;97557.53;;;11.57;76.47
46392;BME280;32098;49.448;7.904;2023-03-23T10:44:21;97556.78;;;11.35;77.00
46392;BME280;32098;49.448;7.904;2023-03-23T10:47:02;97564.53;;;11.36;77.77
46392;BME280;32098;49.448;7.904;2023-03-23T10:49:41;97559.69;;;11.33;78.52
46392;BME280;32098;49.448;7.904;2023-03-23T10:54:51;97543.97;;;11.37;78.80
46392;BME280;32098;49.448;7.904;2023-03-23T10:57:22;97544.19;;;11.57;79.30
46392;BME280;32098;49.448;7.904;2023-03-23T10:59:50;97532.88;;;11.76;78.56
46392;BME280;32098;49.448;7.904;2023-03-23T11:02:20;97528.66;;;11.86;76.99
46392;BME280;32098;49.448;7.904;2023-03-23T11:05:04;97548.81;;;11.98;76.42
46392;BME280;32098;49.448;7.904;2023-03-23T11:07:34;97543.00;;;12.06;77.47
46392;BME280;32098;49.448;7.904;2023-03-23T11:10:16;97537.56;;;11.96;76.31
46392;BME280;32098;49.448;7.904;2023-03-23T11:12:45;97532.06;;;12.08;76.49
46392;BME280;32098;49.448;7.904;2023-03-23T11:15:29;97536.97;;;12.21;75.72
46392;BME280;32098;49.448;7.904;2023-03-23T11:18:06;97538.06;;;12.20;76.14
46392;BME280;32098;49.448;7.904;2023-03-23T11:20:44;97550.94;;;12.23;75.03
46392;BME280;32098;49.448;7.904;2023-03-23T11:23:21;97548.16;;;12.13;74.90
46392;BME280;32098;49.448;7.904;2023-03-23T11:26:08;97544.22;;;12.20;75.24
46392;BME280;32098;49.448;7.904;2023-03-23T11:28:41;97549.44;;;12.05;75.52
46392;BME280;32098;49.448;7.904;2023-03-23T11:31:08;97548.69;;;12.10;75.30
46392;BME280;32098;49.448;7.904;2023-03-23T11:33:47;97546.03;;;12.15;75.01
46392;BME280;32098;49.448;7.904;2023-03-23T11:36:13;97541.34;;;12.32;74.39
46392;BME280;32098;49.448;7.904;2023-03-23T11:38:39;97536.44;;;12.19;73.41
46392;BME280;32098;49.448;7.904;2023-03-23T11:41:12;97539.91;;;12.19;73.72
46392;BME280;32098;49.448;7.904;2023-03-23T11:43:44;97531.84;;;12.14;73.76
46392;BME280;32098;49.448;7.904;2023-03-23T11:46:18;97538.31;;;12.23;73.50
46392;BME280;32098;49.448;7.904;2023-03-23T11:48:57;97529.81;;;12.31;73.78
46392;BME280;32098;49.448;7.904;2023-03-23T11:51:38;97535.69;;;12.28;73.21
46392;BME280;32098;49.448;7.904;2023-03-23T11:54:15;97529.75;;;12.21;73.50
46392;BME280;32098;49.448;7.904;2023-03-23T11:56:43;97536.81;;;12.32;73.17
46392;BME280;32098;49.448;7.904;2023-03-23T11:59:25;97497.88;;;12.15;72.92
46392;BME280;32098;49.448;7.904;2023-03-23T12:01:56;97524.00;;;12.39;72.21
46392;BME280;32098;49.448;7.904;2023-03-23T12:04:25;97536.47;;;12.24;72.83
46392;BME280;32098;49.448;7.904;2023-03-23T12:06:58;97529.91;;;12.05;72.25
46392;BME280;32098;49.448;7.904;2023-03-23T12:12:40;97517.09;;;12.12;73.39
46392;BME280;32098;49.448;7.904;2023-03-23T12:21:12;97513.50;;;11.96;73.07
46392;BME280;32098;49.448;7.904;2023-03-23T12:23:51;97515.34;;;11.96;73.88
46392;BME280;32098;49.448;7.904;2023-03-23T12:26:24;97513.69;;;11.85;73.90
46392;BME280;32098;49.448;7.904;2023-03-23T12:31:53;97505.19;;;11.93;74.39
46392;BME280;32098;49.448;7.904;2023-03-23T12:40:47;97473.22;;;12.13;74.50
46392;BME280;32098;49.448;7.904;2023-03-23T12:46:13;97481.81;;;12.15;75.72
46392;BME280;32098;49.448;7.904;2023-03-23T12:48:49;97485.88;;;12.22;77.05
46392;BME280;32098;49.448;7.904;2023-03-23T12:54:03;97483.47;;;12.26;74.71
46392;BME280;32098;49.448;7.904;2023-03-23T12:56:46;97497.06;;;12.14;74.34
46392;BME280;32098;49.448;7.904;2023-03-23T12:59:30;97491.44;;;12.16;74.19
46392;BME280;32098;49.448;7.904;2023-03-23T13:02:12;97488.59;;;11.96;73.22
46392;BME280;32098;49.448;7.904;2023-03-23T13:04:45;97494.00;;;12.01;74.08
46392;BME280;32098;49.448;7.904;2023-03-23T13:07:17;97485.97;;;12.01;73.87
46392;BME280;32098;49.448;7.904;2023-03-23T13:09:52;97479.53;;;11.97;73.46
46392;BME280;32098;49.448;7.904;2023-03-23T13:12:18;97480.06;;;11.99;73.54
46392;BME280;32098;49.448;7.904;2023-03-23T13:15:03;97481.06;;;11.88;73.20
46392;BME280;32098;49.448;7.904;2023-03-23T13:17:48;97478.44;;;11.93;72.67
46392;BME280;32098;49.448;7.904;2023-03-23T13:20:38;97483.56;;;11.67;73.04
46392;BME280;32098;49.448;7.904;2023-03-23T13:23:24;97484.63;;;11.66;73.36
46392;BME280;32098;49.448;7.904;2023-03-23T13:25:53;97493.25;;;11.73;73.48
46392;BME280;32098;49.448;7.904;2023-03-23T13:28:27;97494.00;;;11.69;73.91
46392;BME280;32098;49.448;7.904;2023-03-23T13:31:14;97490.44;;;11.58;73.24
46392;BME280;32098;49.448;7.904;2023-03-23T13:33:49;97488.63;;;11.64;73.26
46392;BME280;32098;49.448;7.904;2023-03-23T13:36:24;97498.34;;;11.48;73.34
46392;BME280;32098;49.448;7.904;2023-03-23T13:38:50;97467.06;;;11.49;73.43
46392;BME280;32098;49.448;7.904;2023-03-23T13:41:18;97491.78;;;11.61;73.24
46392;BME280;32098;49.448;7.904;2023-03-23T13:43:47;97488.34;;;11.60;73.42
46392;BME280;32098;49.448;7.904;2023-03-23T13:46:33;97478.13;;;11.57;73.07
46392;BME280;32098;49.448;7.904;2023-03-23T13:54:25;97478.28;;;11.46;73.69
46392;BME280;32098;49.448;7.904;2023-03-23T13:56:56;97480.16;;;11.45;73.70
46392;BME280;32098;49.448;7.904;2023-03-23T13:59:32;97474.59;;;11.52;73.42
46392;BME280;32098;49.448;7.904;2023-03-23T14:02:27;97475.06;;;11.44;73.22
46392;BME280;32098;49.448;7.904;2023-03-23T14:04:54;97470.94;;;11.58;73.10
46392;BME280;32098;49.448;7.904;2023-03-23T14:07:20;97466.94;;;11.60;73.24
46392;BME280;32098;49.448;7.904;2023-03-23T14:09:46;97438.44;;;11.44;74.02
46392;BME280;32098;49.448;7.904;2023-03-23T14:12:21;97469.25;;;11.52;73.67
46392;BME280;32098;49.448;7.904;2023-03-23T14:14:56;97470.31;;;11.51;73.81
46392;BME280;32098;49.448;7.904;2023-03-23T14:17:28;97481.31;;;11.54;73.51
46392;BME280;32098;49.448;7.904;2023-03-23T14:19:57;97478.28;;;11.46;74.12
46392;BME280;32098;49.448;7.904;2023-03-23T14:22:39;97466.84;;;11.50;74.24
46392;BME280;32098;49.448;7.904;2023-03-23T14:25:14;97472.19;;;11.50;74.88
46392;BME280;32098;49.448;7.904;2023-03-23T14:27:39;97467.47;;;11.36;75.56